Time;durP1;ratioP1;P1;durP2;ratioP2;P2;SDS_P1;SDS_P2;PMS_P1;PMS_P2;Temp;Humidity;BMP_temperature;BMP_pressure;BME280_temperature;BME280_humidity;BME280_pressure;Samples;Min_cycle;Max_cycle;Signal;HPM_P1;HPM_P2
2023/04/26 00:01:39;;;;;;;12.37;5.10;;;;;;;;;;5072586;28;20214;-64
2023/04/26 00:04:04;;;;;;;12.87;4.67;;;;;;;;;;5071936;28;20215;-64
2023/04/26 00:06:29;;;;;;;12.93;5.47;;;;;;;;;;5084149;28;20628;-64
2023/04/26 00:08:55;;;;;;;13.57;5.37;;;;;;;;;;5089749;28;20230;-64
2023/04/26 00:11:20;;;;;;;13.60;5.33;;;;;;;;;;5071628;28;20580;-64
2023/04/26 00:13:45;;;;;;;10.25;4.72;;;;;;;;;;5077933;28;20296;-64
2023/04/26 00:16:12;;;;;;;10.57;4.97;;;;;;;;;;5082718;28;20279;-64
2023/04/26 00:18:37;;;;;;;14.30;5.70;;;;;;;;;;5090805;28;20271;-64
2023/04/26 00:21:03;;;;;;;11.43;5.27;;;;;;;;;;5089261;28;20482;-63
2023/04/26 00:23:28;;;;;;;11.30;4.90;;;;;;;;;;5092008;28;20218;-64
2023/04/26 00:25:55;;;;;;;12.33;5.40;;;;;;;;;;5090597;28;20225;-64
2023/04/26 00:28:20;;;;;;;13.33;5.23;;;;;;;;;;5090871;28;20226;-64
2023/04/26 00:30:47;;;;;;;11.80;5.43;;;;;;;;;;5092076;28;20278;-64
2023/04/26 00:33:13;;;;;;;10.17;5.00;;;;;;;;;;5091575;28;20237;-64
2023/04/26 00:35:38;;;;;;;10.83;5.03;;;;;;;;;;5091019;28;20562;-64
2023/04/26 00:38:03;;;;;;;16.20;5.70;;;;;;;;;;5091570;28;20206;-64
2023/04/26 00:40:29;;;;;;;11.27;4.97;;;;;;;;;;5091597;28;20289;-64
2023/04/26 00:42:56;;;;;;;16.37;5.43;;;;;;;;;;5091218;28;20213;-64
2023/04/26 00:45:21;;;;;;;9.30;5.67;;;;;;;;;;5091001;28;20658;-64
2023/04/26 00:47:46;;;;;;;12.53;5.43;;;;;;;;;;5091779;28;20227;-64
2023/04/26 00:50:11;;;;;;;11.50;5.77;;;;;;;;;;5090174;28;20220;-64
2023/04/26 00:52:37;;;;;;;9.87;5.10;;;;;;;;;;5090419;28;20703;-64
2023/04/26 00:55:02;;;;;;;14.10;6.00;;;;;;;;;;5089844;28;20216;-64
2023/04/26 00:57:27;;;;;;;12.73;5.80;;;;;;;;;;5090790;28;20217;-64
2023/04/26 00:59:52;;;;;;;12.67;5.83;;;;;;;;;;5091432;28;20213;-64
2023/04/26 01:02:18;;;;;;;15.63;5.72;;;;;;;;;;5090243;28;20242;-64
2023/04/26 01:04:44;;;;;;;16.50;5.90;;;;;;;;;;5091270;28;20217;-64
2023/04/26 01:07:10;;;;;;;12.20;5.60;;;;;;;;;;5069810;28;20751;-64
2023/04/26 01:09:36;;;;;;;12.60;6.20;;;;;;;;;;5076626;28;20362;-64
2023/04/26 01:12:01;;;;;;;14.45;5.35;;;;;;;;;;5090875;28;20651;-63
2023/04/26 01:14:26;;;;;;;13.10;5.73;;;;;;;;;;5077379;28;20218;-64
2023/04/26 01:16:51;;;;;;;14.00;5.70;;;;;;;;;;5070188;28;20210;-64
2023/04/26 01:19:17;;;;;;;15.47;5.53;;;;;;;;;;5070405;28;20202;-64
2023/04/26 01:21:42;;;;;;;13.87;5.97;;;;;;;;;;5069449;28;20566;-64
2023/04/26 01:24:08;;;;;;;13.63;6.03;;;;;;;;;;5068378;28;20690;-63
2023/04/26 01:26:33;;;;;;;11.57;5.87;;;;;;;;;;5070504;28;20226;-64
2023/04/26 01:28:58;;;;;;;11.33;5.80;;;;;;;;;;5070681;28;20697;-64
2023/04/26 01:31:24;;;;;;;10.93;5.57;;;;;;;;;;5069274;28;20218;-64
2023/04/26 01:33:49;;;;;;;12.67;5.90;;;;;;;;;;5070292;28;20255;-64
2023/04/26 01:36:14;;;;;;;12.47;7.13;;;;;;;;;;5070042;28;20666;-64
2023/04/26 01:38:40;;;;;;;15.00;6.77;;;;;;;;;;5069657;28;20219;-64
2023/04/26 01:41:05;;;;;;;13.25;5.85;;;;;;;;;;5068594;28;20301;-64
2023/04/26 01:43:30;;;;;;;14.87;6.20;;;;;;;;;;5070450;28;20211;-64
2023/04/26 01:45:56;;;;;;;12.33;5.80;;;;;;;;;;5069445;28;20226;-64
2023/04/26 01:48:21;;;;;;;13.13;5.90;;;;;;;;;;5069979;28;20526;-64
2023/04/26 01:50:46;;;;;;;11.95;6.20;;;;;;;;;;5070275;28;20221;-64
2023/04/26 01:53:12;;;;;;;13.07;6.67;;;;;;;;;;5067777;28;20210;-64
2023/04/26 01:55:37;;;;;;;15.30;6.63;;;;;;;;;;5070268;28;20214;-64
2023/04/26 01:58:02;;;;;;;15.50;6.40;;;;;;;;;;5068430;28;20221;-63
2023/04/26 02:00:28;;;;;;;11.23;6.30;;;;;;;;;;5069592;28;20260;-64
2023/04/26 02:02:53;;;;;;;14.83;6.83;;;;;;;;;;5068846;28;20214;-64
2023/04/26 02:05:19;;;;;;;12.53;6.57;;;;;;;;;;5073831;28;20260;-64
2023/04/26 02:07:44;;;;;;;10.83;6.30;;;;;;;;;;5089401;28;20213;-64
2023/04/26 02:10:09;;;;;;;12.77;6.17;;;;;;;;;;5077001;28;20321;-64
2023/04/26 02:12:35;;;;;;;11.73;6.37;;;;;;;;;;5069450;28;20210;-64
2023/04/26 02:15:00;;;;;;;12.47;6.10;;;;;;;;;;5080531;28;20210;-64
2023/04/26 02:17:25;;;;;;;11.70;6.33;;;;;;;;;;5087166;28;20209;-64
2023/04/26 02:19:51;;;;;;;14.33;6.67;;;;;;;;;;5089668;28;20324;-64
2023/04/26 02:22:16;;;;;;;12.80;6.27;;;;;;;;;;5089505;28;20613;-64
2023/04/26 02:24:41;;;;;;;13.97;6.77;;;;;;;;;;5090304;28;20209;-64
2023/04/26 02:27:07;;;;;;;13.80;6.60;;;;;;;;;;5088880;28;20237;-64
2023/04/26 02:29:32;;;;;;;11.87;6.87;;;;;;;;;;5088819;28;20220;-64
2023/04/26 02:31:57;;;;;;;13.00;6.67;;;;;;;;;;5090066;28;20206;-64
2023/04/26 02:34:22;;;;;;;17.63;7.40;;;;;;;;;;5089020;28;20312;-64
2023/04/26 02:36:48;;;;;;;14.70;7.57;;;;;;;;;;5090043;28;20331;-64
2023/04/26 02:39:13;;;;;;;12.23;6.77;;;;;;;;;;5089506;28;20580;-64
2023/04/26 02:41:38;;;;;;;14.40;7.07;;;;;;;;;;5089116;28;20300;-64
2023/04/26 02:44:04;;;;;;;14.00;6.50;;;;;;;;;;5091341;28;20229;-63
2023/04/26 02:46:29;;;;;;;15.67;7.13;;;;;;;;;;5094015;28;20308;-64
2023/04/26 02:48:54;;;;;;;14.50;6.53;;;;;;;;;;5093131;28;20236;-64
2023/04/26 02:51:20;;;;;;;15.20;6.80;;;;;;;;;;5093694;28;20727;-64
2023/04/26 02:53:45;;;;;;;11.77;7.03;;;;;;;;;;5093741;28;20288;-64
2023/04/26 02:56:10;;;;;;;15.67;7.33;;;;;;;;;;5092951;28;20311;-64
2023/04/26 02:58:36;;;;;;;12.80;6.93;;;;;;;;;;5093545;28;20254;-64
2023/04/26 03:01:02;;;;;;;12.67;6.80;;;;;;;;;;5093575;28;20232;-64
2023/04/26 03:03:28;;;;;;;12.00;7.43;;;;;;;;;;5092898;28;20221;-64
2023/04/26 03:05:53;;;;;;;16.70;8.13;;;;;;;;;;5083374;28;20581;-64
2023/04/26 03:08:19;;;;;;;15.60;9.23;;;;;;;;;;5072358;28;20206;-64
2023/04/26 03:10:45;;;;;;;18.33;9.83;;;;;;;;;;5090113;28;20753;-64
2023/04/26 03:13:10;;;;;;;15.97;8.70;;;;;;;;;;5091351;28;20214;-64
2023/04/26 03:15:36;;;;;;;15.03;7.80;;;;;;;;;;5073226;28;20215;-64
2023/04/26 03:18:01;;;;;;;12.97;7.57;;;;;;;;;;5072059;28;20213;-63
2023/04/26 03:20:26;;;;;;;11.63;7.20;;;;;;;;;;5073195;28;20206;-64
2023/04/26 03:22:51;;;;;;;14.20;7.83;;;;;;;;;;5072965;28;20252;-64
2023/04/26 03:25:17;;;;;;;16.43;7.77;;;;;;;;;;5071880;28;20256;-64
2023/04/26 03:27:42;;;;;;;13.13;7.77;;;;;;;;;;5071566;28;20259;-64
2023/04/26 03:30:07;;;;;;;18.43;8.20;;;;;;;;;;5071806;28;20674;-64
2023/04/26 03:32:33;;;;;;;13.80;8.13;;;;;;;;;;5073090;28;20214;-64
2023/04/26 03:34:58;;;;;;;15.83;7.90;;;;;;;;;;5072920;28;20206;-64
2023/04/26 03:37:23;;;;;;;14.73;8.00;;;;;;;;;;5071906;28;20574;-64
2023/04/26 03:39:51;;;;;;;12.13;8.07;;;;;;;;;;5072503;28;20680;-64
2023/04/26 03:42:16;;;;;;;14.17;8.07;;;;;;;;;;5072500;28;20214;-64
2023/04/26 03:44:41;;;;;;;15.50;7.83;;;;;;;;;;5071654;28;20221;-64
2023/04/26 03:47:07;;;;;;;14.37;7.90;;;;;;;;;;5072315;28;20225;-64
2023/04/26 03:49:32;;;;;;;13.23;7.93;;;;;;;;;;5072541;28;20222;-64
2023/04/26 03:51:58;;;;;;;13.97;7.20;;;;;;;;;;5071919;28;20292;-64
2023/04/26 03:54:24;;;;;;;14.17;7.50;;;;;;;;;;5071992;28;20215;-63
2023/04/26 03:56:49;;;;;;;16.93;7.67;;;;;;;;;;5071785;28;20293;-64
2023/04/26 03:59:14;;;;;;;14.33;8.13;;;;;;;;;;5071027;28;20238;-64
2023/04/26 04:01:40;;;;;;;18.70;8.17;;;;;;;;;;5072456;28;20213;-64
2023/04/26 04:04:05;;;;;;;17.03;8.27;;;;;;;;;;5071821;28;20222;-63
2023/04/26 04:06:31;;;;;;;17.60;8.00;;;;;;;;;;5085987;28;20222;-64
2023/04/26 04:08:56;;;;;;;15.27;7.73;;;;;;;;;;5089608;28;20245;-64
2023/04/26 04:11:22;;;;;;;15.77;8.47;;;;;;;;;;5071752;28;20226;-64
2023/04/26 04:13:47;;;;;;;15.60;8.03;;;;;;;;;;5077871;28;20210;-64
2023/04/26 04:16:12;;;;;;;13.43;7.87;;;;;;;;;;5082750;28;20292;-64
2023/04/26 04:18:38;;;;;;;12.97;7.83;;;;;;;;;;5092374;28;20218;-64
2023/04/26 04:21:03;;;;;;;18.63;7.90;;;;;;;;;;5091064;28;20205;-64
2023/04/26 04:23:28;;;;;;;14.03;7.13;;;;;;;;;;5092287;28;20233;-64
2023/04/26 04:25:53;;;;;;;15.93;7.97;;;;;;;;;;5091868;28;20275;-64
2023/04/26 04:28:19;;;;;;;14.87;7.30;;;;;;;;;;5091004;28;20699;-64
2023/04/26 04:30:45;;;;;;;15.00;8.03;;;;;;;;;;5091715;28;20209;-64
2023/04/26 04:33:11;;;;;;;13.87;7.70;;;;;;;;;;5091565;28;20237;-64
2023/04/26 04:35:36;;;;;;;15.73;7.70;;;;;;;;;;5091196;28;20256;-64
2023/04/26 04:38:02;;;;;;;14.27;7.10;;;;;;;;;;5091594;28;20641;-63
2023/04/26 04:40:27;;;;;;;15.70;7.10;;;;;;;;;;5089547;28;20423;-64
2023/04/26 04:42:53;;;;;;;18.13;8.87;;;;;;;;;;5091850;28;20209;-65
2023/04/26 04:45:19;;;;;;;13.73;7.07;;;;;;;;;;5091025;28;20214;-64
2023/04/26 04:47:44;;;;;;;13.33;6.67;;;;;;;;;;5091103;28;20297;-64
2023/04/26 04:50:09;;;;;;;11.93;6.80;;;;;;;;;;5091185;28;20267;-64
2023/04/26 04:52:35;;;;;;;12.13;7.07;;;;;;;;;;5091736;28;20546;-64
2023/04/26 04:55:01;;;;;;;14.07;7.40;;;;;;;;;;5090354;28;20241;-63
2023/04/26 04:57:26;;;;;;;12.00;6.80;;;;;;;;;;5091458;28;20226;-64
2023/04/26 04:59:52;;;;;;;13.70;6.80;;;;;;;;;;5091492;28;20246;-64
2023/04/26 05:02:17;;;;;;;13.87;6.83;;;;;;;;;;5090355;28;20637;-64
2023/04/26 05:04:42;;;;;;;12.00;7.07;;;;;;;;;;5091550;28;20223;-64
2023/04/26 05:07:08;;;;;;;17.77;5.93;;;;;;;;;;5071633;28;20249;-64
2023/04/26 05:09:33;;;;;;;11.63;6.63;;;;;;;;;;5077666;28;20712;-67
2023/04/26 05:11:59;;;;;;;10.20;5.97;;;;;;;;;;5091005;28;20267;-65
2023/04/26 05:14:24;;;;;;;9.95;6.03;;;;;;;;;;5079123;28;20211;-65
2023/04/26 05:16:49;;;;;;;10.38;5.68;;;;;;;;;;5069811;28;20685;-65
2023/04/26 05:19:15;;;;;;;12.55;6.00;;;;;;;;;;5070645;28;20254;-65
2023/04/26 05:21:40;;;;;;;13.30;6.00;;;;;;;;;;5070901;28;20249;-65
2023/04/26 05:24:06;;;;;;;12.15;6.18;;;;;;;;;;5069558;28;20207;-64
2023/04/26 05:26:31;;;;;;;11.35;6.13;;;;;;;;;;5070564;28;20256;-65
2023/04/26 05:28:56;;;;;;;12.60;6.22;;;;;;;;;;5070719;28;20501;-65
2023/04/26 05:31:22;;;;;;;10.93;5.90;;;;;;;;;;5069352;28;20700;-65
2023/04/26 05:33:47;;;;;;;10.60;6.35;;;;;;;;;;5070762;28;20275;-65
2023/04/26 05:36:12;;;;;;;11.95;5.90;;;;;;;;;;5070072;28;20214;-65
2023/04/26 05:38:38;;;;;;;15.45;6.28;;;;;;;;;;5069743;28;20206;-65
2023/04/26 05:41:03;;;;;;;18.50;6.32;;;;;;;;;;5069829;28;20210;-65
2023/04/26 05:43:28;;;;;;;14.13;5.25;;;;;;;;;;5070468;28;20705;-66
2023/04/26 05:45:55;;;;;;;15.60;5.50;;;;;;;;;;5069470;28;20236;-66
2023/04/26 05:48:21;;;;;;;14.70;5.28;;;;;;;;;;5070066;28;20273;-66
2023/04/26 05:50:46;;;;;;;10.48;5.45;;;;;;;;;;5068363;28;20720;-66
2023/04/26 05:53:11;;;;;;;12.07;5.03;;;;;;;;;;5069914;28;20211;-65
2023/04/26 05:55:37;;;;;;;10.90;4.63;;;;;;;;;;5069170;28;20225;-65
2023/04/26 05:58:02;;;;;;;11.45;4.88;;;;;;;;;;5069267;28;20722;-65
2023/04/26 06:00:27;;;;;;;12.45;4.50;;;;;;;;;;5070524;28;20214;-65
2023/04/26 06:02:53;;;;;;;10.23;4.90;;;;;;;;;;5070205;28;20806;-66
2023/04/26 06:05:18;;;;;;;14.18;4.70;;;;;;;;;;5072983;28;20226;-65
2023/04/26 06:07:44;;;;;;;13.30;5.43;;;;;;;;;;5090416;28;20301;-65
2023/04/26 06:10:09;;;;;;;15.50;5.32;;;;;;;;;;5077085;28;20353;-65
2023/04/26 06:12:34;;;;;;;11.23;5.05;;;;;;;;;;5069403;28;20682;-66
2023/04/26 06:15:00;;;;;;;12.13;5.10;;;;;;;;;;5080694;28;20206;-66
2023/04/26 06:17:25;;;;;;;9.88;5.13;;;;;;;;;;5063918;28;20586;-65
2023/04/26 06:19:50;;;;;;;13.70;4.97;;;;;;;;;;5068999;28;20210;-65
2023/04/26 06:22:15;;;;;;;13.40;4.93;;;;;;;;;;5068332;28;20281;-65
2023/04/26 06:24:41;;;;;;;10.93;5.20;;;;;;;;;;5069837;28;20212;-65
2023/04/26 06:27:06;;;;;;;11.77;5.15;;;;;;;;;;5068783;28;20222;-65
2023/04/26 06:29:31;;;;;;;10.07;4.50;;;;;;;;;;5070055;28;20625;-65
2023/04/26 06:31:57;;;;;;;10.80;4.10;;;;;;;;;;5068614;28;20249;-65
2023/04/26 06:34:22;;;;;;;10.90;3.47;;;;;;;;;;5068727;28;20214;-65
2023/04/26 06:36:47;;;;;;;8.82;2.83;;;;;;;;;;5069858;28;20765;-65
2023/04/26 06:39:12;;;;;;;12.25;3.30;;;;;;;;;;5069416;28;20206;-65
2023/04/26 06:41:38;;;;;;;7.00;2.50;;;;;;;;;;5068930;28;20210;-65
2023/04/26 06:44:03;;;;;;;11.90;3.53;;;;;;;;;;5069541;28;20234;-65
2023/04/26 06:46:28;;;;;;;9.15;2.75;;;;;;;;;;5069924;28;20226;-66
2023/04/26 06:48:54;;;;;;;10.57;2.38;;;;;;;;;;5068796;28;20253;-66
2023/04/26 06:51:20;;;;;;;6.55;2.03;;;;;;;;;;5068145;28;21873;-65
2023/04/26 06:53:45;;;;;;;12.65;3.40;;;;;;;;;;5069835;28;20253;-66
2023/04/26 06:56:10;;;;;;;7.55;1.60;;;;;;;;;;5068725;28;20215;-65
2023/04/26 06:58:36;;;;;;;7.90;1.50;;;;;;;;;;5069699;28;20340;-65
2023/04/26 07:01:01;;;;;;;8.82;1.67;;;;;;;;;;5068529;28;20568;-64
2023/04/26 07:03:26;;;;;;;9.20;1.80;;;;;;;;;;5069614;28;20227;-65
2023/04/26 07:05:53;;;;;;;5.28;1.45;;;;;;;;;;5069577;28;20230;-65
2023/04/26 07:08:18;;;;;;;5.05;1.73;;;;;;;;;;5068277;28;20563;-64
2023/04/26 07:10:44;;;;;;;8.95;1.40;;;;;;;;;;5069521;28;20211;-65
2023/04/26 07:13:09;;;;;;;7.15;1.70;;;;;;;;;;5070102;28;20211;-65
2023/04/26 07:15:35;;;;;;;6.93;1.50;;;;;;;;;;5076122;28;20568;-65
2023/04/26 07:18:00;;;;;;;7.45;1.70;;;;;;;;;;5065926;28;20681;-65
2023/04/26 07:20:25;;;;;;;7.82;2.63;;;;;;;;;;5069149;28;20233;-65
2023/04/26 07:22:51;;;;;;;9.90;3.15;;;;;;;;;;5068740;28;20211;-65
2023/04/26 07:25:16;;;;;;;8.98;2.83;;;;;;;;;;5068852;28;20227;-65
2023/04/26 07:27:42;;;;;;;7.07;2.20;;;;;;;;;;5069577;28;20289;-65
2023/04/26 07:30:07;;;;;;;10.02;2.40;;;;;;;;;;5068188;28;20223;-64
2023/04/26 07:32:32;;;;;;;8.98;2.08;;;;;;;;;;5073160;28;20629;-65
2023/04/26 07:34:58;;;;;;;8.60;2.00;;;;;;;;;;5072628;28;20561;-65
2023/04/26 07:37:23;;;;;;;8.00;2.00;;;;;;;;;;5071984;28;20222;-65
2023/04/26 07:39:48;;;;;;;8.07;2.00;;;;;;;;;;5072610;28;20207;-65
2023/04/26 07:42:14;;;;;;;8.27;2.17;;;;;;;;;;5072472;28;20552;-65
2023/04/26 07:44:39;;;;;;;7.13;1.90;;;;;;;;;;5072001;28;20211;-65
2023/04/26 07:47:04;;;;;;;11.05;2.78;;;;;;;;;;5072346;28;20351;-65
2023/04/26 07:49:30;;;;;;;10.38;2.72;;;;;;;;;;5072507;28;20210;-65
2023/04/26 07:51:57;;;;;;;10.25;2.80;;;;;;;;;;5071868;28;20221;-65
2023/04/26 07:54:22;;;;;;;6.00;1.90;;;;;;;;;;5072284;28;20210;-65
2023/04/26 07:56:47;;;;;;;9.25;2.53;;;;;;;;;;5072831;28;20573;-65
2023/04/26 07:59:12;;;;;;;9.98;2.58;;;;;;;;;;5071074;28;20253;-65
2023/04/26 08:01:38;;;;;;;7.85;2.60;;;;;;;;;;5072479;28;20468;-65
2023/04/26 08:04:04;;;;;;;9.57;2.13;;;;;;;;;;5071991;28;20754;-65
2023/04/26 08:06:30;;;;;;;7.35;1.80;;;;;;;;;;5071495;28;20226;-65
2023/04/26 08:08:55;;;;;;;6.50;2.13;;;;;;;;;;5074071;28;20242;-66
2023/04/26 08:11:20;;;;;;;17.58;2.35;;;;;;;;;;5089892;28;20637;-65
2023/04/26 08:13:46;;;;;;;8.68;2.00;;;;;;;;;;5085954;28;20785;-65
2023/04/26 08:16:11;;;;;;;30.65;2.80;;;;;;;;;;5071590;28;20723;-65
2023/04/26 08:18:36;;;;;;;13.27;1.77;;;;;;;;;;5071483;28;20219;-66
2023/04/26 08:21:02;;;;;;;5.97;1.50;;;;;;;;;;5070123;28;20215;-65
2023/04/26 08:23:28;;;;;;;7.97;1.75;;;;;;;;;;5072133;28;20215;-65
2023/04/26 08:25:53;;;;;;;6.90;1.42;;;;;;;;;;5071066;28;20222;-65
2023/04/26 08:28:19;;;;;;;4.78;1.45;;;;;;;;;;5071510;28;20298;-65
2023/04/26 08:30:44;;;;;;;4.32;1.20;;;;;;;;;;5071712;28;20207;-65
2023/04/26 08:33:09;;;;;;;6.75;1.30;;;;;;;;;;5070687;28;20207;-65
2023/04/26 08:35:35;;;;;;;7.05;1.30;;;;;;;;;;5070269;28;20234;-65
2023/04/26 08:38:00;;;;;;;5.20;1.70;;;;;;;;;;5071723;28;20241;-65
2023/04/26 08:40:25;;;;;;;6.38;1.20;;;;;;;;;;5070460;28;20739;-65
2023/04/26 08:42:52;;;;;;;6.00;1.55;;;;;;;;;;5071382;28;20215;-65
2023/04/26 08:45:17;;;;;;;5.03;1.40;;;;;;;;;;5070936;28;20223;-65
2023/04/26 08:47:44;;;;;;;16.75;2.00;;;;;;;;;;5071091;28;20221;-65
2023/04/26 08:50:11;;;;;;;8.60;1.48;;;;;;;;;;5070685;28;20214;-65
2023/04/26 08:52:36;;;;;;;8.02;1.90;;;;;;;;;;5070088;28;20206;-65
2023/04/26 08:55:04;;;;;;;6.70;1.50;;;;;;;;;;5068720;28;20225;-65
2023/04/26 08:57:29;;;;;;;6.38;1.35;;;;;;;;;;5070027;28;20229;-65
2023/04/26 08:59:55;;;;;;;6.32;1.40;;;;;;;;;;5071173;28;20210;-65
2023/04/26 09:02:20;;;;;;;6.93;1.48;;;;;;;;;;5069893;28;20264;-65
2023/04/26 09:04:46;;;;;;;7.75;1.73;;;;;;;;;;5071021;28;20248;-65
2023/04/26 09:07:12;;;;;;;5.35;1.67;;;;;;;;;;5090544;28;20214;-65
2023/04/26 09:09:40;;;;;;;6.97;2.00;;;;;;;;;;5080993;28;20241;-65
2023/04/26 09:12:06;;;;;;;7.35;1.58;;;;;;;;;;5070624;28;20213;-65
2023/04/26 09:14:31;;;;;;;4.72;1.38;;;;;;;;;;5081441;28;20210;-65
2023/04/26 09:16:56;;;;;;;5.88;1.58;;;;;;;;;;5064625;28;20293;-65
2023/04/26 09:19:36;;;;;;;3.83;1.50;;;;;;;;;;5070446;28;20603;-65
2023/04/26 09:22:01;;;;;;;5.03;1.50;;;;;;;;;;5069670;28;20213;-64
2023/04/26 09:24:26;;;;;;;5.65;1.42;;;;;;;;;;5069469;28;20601;-65
2023/04/26 09:27:02;;;;;;;4.90;1.45;;;;;;;;;;5070718;28;20596;-65
2023/04/26 09:29:27;;;;;;;5.55;1.75;;;;;;;;;;5069572;28;20225;-65
2023/04/26 09:31:52;;;;;;;8.52;1.80;;;;;;;;;;5070597;28;20210;-65
2023/04/26 09:34:17;;;;;;;6.32;1.85;;;;;;;;;;5070154;28;20210;-65
2023/04/26 09:36:49;;;;;;;11.75;1.80;;;;;;;;;;5069800;28;20681;-65
2023/04/26 09:39:28;;;;;;;6.07;1.70;;;;;;;;;;5070054;28;20214;-65
2023/04/26 09:41:53;;;;;;;6.38;1.65;;;;;;;;;;5070767;28;20207;-65
2023/04/26 09:44:20;;;;;;;6.57;1.60;;;;;;;;;;5068004;28;20217;-65
2023/04/26 09:46:56;;;;;;;7.63;1.73;;;;;;;;;;5068887;28;20218;-65
2023/04/26 09:49:21;;;;;;;7.22;1.98;;;;;;;;;;5069827;28;20227;-65
2023/04/26 09:52:03;;;;;;;8.98;1.80;;;;;;;;;;5069501;28;20621;-65
2023/04/26 09:54:40;;;;;;;5.70;1.60;;;;;;;;;;5069398;28;20210;-65
2023/04/26 09:57:05;;;;;;;8.10;2.00;;;;;;;;;;5069093;28;20551;-65
2023/04/26 09:59:44;;;;;;;7.55;1.80;;;;;;;;;;5070226;28;20217;-65
2023/04/26 10:02:12;;;;;;;6.68;2.00;;;;;;;;;;5069634;28;20202;-65
2023/04/26 10:04:37;;;;;;;7.32;1.60;;;;;;;;;;5068216;28;20774;-65
2023/04/26 10:07:04;;;;;;;4.65;1.60;;;;;;;;;;5068276;28;20302;-64
2023/04/26 10:09:29;;;;;;;4.28;1.60;;;;;;;;;;5076766;28;20596;-65
2023/04/26 10:11:55;;;;;;;5.15;2.03;;;;;;;;;;5088198;28;20263;-65
2023/04/26 10:14:21;;;;;;;6.82;2.00;;;;;;;;;;5077264;28;20222;-65
2023/04/26 10:16:46;;;;;;;6.45;2.10;;;;;;;;;;5070002;28;20244;-65
2023/04/26 10:19:11;;;;;;;6.32;2.28;;;;;;;;;;5067629;28;20210;-65
2023/04/26 10:21:37;;;;;;;7.43;2.15;;;;;;;;;;5068675;28;20210;-65
2023/04/26 10:24:02;;;;;;;7.47;2.08;;;;;;;;;;5068166;28;20220;-64
2023/04/26 10:26:48;;;;;;;6.60;2.35;;;;;;;;;;5069249;28;20226;-65
2023/04/26 10:29:13;;;;;;;6.15;2.00;;;;;;;;;;5069656;28;20213;-65
2023/04/26 10:31:57;;;;;;;9.02;1.83;;;;;;;;;;5068515;28;20218;-65
2023/04/26 10:34:23;;;;;;;8.30;1.90;;;;;;;;;;5069291;28;20210;-65
2023/04/26 10:37:05;;;;;;;8.30;2.58;;;;;;;;;;5070003;28;20267;-65
2023/04/26 10:39:30;;;;;;;7.55;2.10;;;;;;;;;;5068652;28;20608;-65
2023/04/26 10:42:17;;;;;;;8.15;2.20;;;;;;;;;;5070062;28;20298;-65
2023/04/26 10:44:44;;;;;;;8.60;2.47;;;;;;;;;;5069465;28;20237;-65
2023/04/26 10:47:22;;;;;;;9.80;2.47;;;;;;;;;;5068574;28;20218;-65
2023/04/26 10:49:48;;;;;;;8.35;2.60;;;;;;;;;;5068516;28;20293;-65
2023/04/26 10:52:15;;;;;;;7.80;2.30;;;;;;;;;;5069291;28;20306;-65
2023/04/26 10:54:46;;;;;;;8.63;2.20;;;;;;;;;;5069082;28;20207;-66
2023/04/26 10:57:12;;;;;;;7.35;2.60;;;;;;;;;;5068152;28;20264;-65
2023/04/26 10:59:37;;;;;;;6.20;2.33;;;;;;;;;;5068433;28;20210;-65
2023/04/26 11:02:03;;;;;;;7.35;2.33;;;;;;;;;;5067342;28;20222;-65
2023/04/26 11:04:47;;;;;;;6.28;2.10;;;;;;;;;;5070157;28;20210;-65
2023/04/26 11:07:12;;;;;;;7.30;2.30;;;;;;;;;;5092288;28;20263;-65
2023/04/26 11:09:38;;;;;;;5.78;2.55;;;;;;;;;;5083799;28;20238;-65
2023/04/26 11:12:04;;;;;;;6.55;2.50;;;;;;;;;;5072973;28;20206;-65
2023/04/26 11:14:30;;;;;;;10.88;2.65;;;;;;;;;;5081832;28;20225;-65
2023/04/26 11:16:55;;;;;;;9.13;2.95;;;;;;;;;;5067778;28;20213;-65
2023/04/26 11:19:21;;;;;;;4.38;2.38;;;;;;;;;;5072619;28;20217;-65
2023/04/26 11:21:46;;;;;;;8.52;2.80;;;;;;;;;;5072396;28;20211;-65
2023/04/26 11:24:14;;;;;;;7.38;2.78;;;;;;;;;;5072601;28;20214;-65
2023/04/26 11:26:39;;;;;;;6.30;2.90;;;;;;;;;;5072924;28;20584;-65
2023/04/26 11:29:06;;;;;;;8.63;2.95;;;;;;;;;;5071825;28;20210;-65
2023/04/26 11:31:32;;;;;;;7.18;2.92;;;;;;;;;;5072996;28;20224;-65
2023/04/26 11:34:03;;;;;;;6.45;2.42;;;;;;;;;;5071517;28;20298;-65
2023/04/26 11:36:28;;;;;;;9.65;3.10;;;;;;;;;;5071814;28;20215;-65
2023/04/26 11:38:54;;;;;;;7.18;2.50;;;;;;;;;;5072584;28;20293;-65
2023/04/26 11:41:19;;;;;;;4.13;2.08;;;;;;;;;;5072312;28;20206;-65
2023/04/26 11:43:45;;;;;;;7.22;2.95;;;;;;;;;;5070725;28;20219;-65
2023/04/26 11:46:10;;;;;;;8.05;2.50;;;;;;;;;;5072094;28;20268;-65
2023/04/26 11:48:36;;;;;;;6.85;2.40;;;;;;;;;;5072838;28;20303;-65
2023/04/26 11:51:02;;;;;;;7.15;2.53;;;;;;;;;;5070013;28;20214;-65
2023/04/26 11:53:40;;;;;;;7.25;2.35;;;;;;;;;;5072688;28;20298;-65
2023/04/26 11:56:15;;;;;;;6.53;2.40;;;;;;;;;;5071640;28;20199;-65
2023/04/26 11:58:42;;;;;;;6.18;2.33;;;;;;;;;;5071773;28;20225;-65
2023/04/26 12:01:08;;;;;;;9.50;3.10;;;;;;;;;;5070624;28;20203;-65
2023/04/26 12:03:36;;;;;;;7.78;2.45;;;;;;;;;;5071877;28;20209;-65
2023/04/26 12:06:01;;;;;;;7.68;2.80;;;;;;;;;;5071657;28;20226;-64
2023/04/26 12:08:27;;;;;;;8.35;2.53;;;;;;;;;;5072426;28;20214;-65
2023/04/26 12:10:52;;;;;;;7.18;2.45;;;;;;;;;;5089623;28;20636;-65
2023/04/26 12:13:17;;;;;;;7.95;2.60;;;;;;;;;;5089619;28;20392;-65
2023/04/26 12:15:43;;;;;;;7.18;2.45;;;;;;;;;;5071994;28;20681;-66
2023/04/26 12:18:08;;;;;;;5.97;2.30;;;;;;;;;;5069208;28;20241;-65
2023/04/26 12:20:35;;;;;;;10.55;2.97;;;;;;;;;;5071924;28;20210;-65
2023/04/26 12:23:01;;;;;;;8.65;2.30;;;;;;;;;;5070261;28;20708;-64
2023/04/26 12:25:27;;;;;;;3.70;2.17;;;;;;;;;;5070791;28;20219;-65
2023/04/26 12:27:52;;;;;;;4.03;2.10;;;;;;;;;;5070599;28;20213;-65
2023/04/26 12:30:17;;;;;;;5.90;2.20;;;;;;;;;;5071504;28;20310;-66
2023/04/26 12:32:43;;;;;;;6.32;2.50;;;;;;;;;;5071138;28;20279;-66
2023/04/26 12:35:08;;;;;;;8.38;2.50;;;;;;;;;;5071394;28;20215;-65
2023/04/26 12:37:33;;;;;;;7.15;2.50;;;;;;;;;;5071666;28;20357;-65
2023/04/26 12:39:59;;;;;;;5.57;2.20;;;;;;;;;;5070665;28;20623;-65
2023/04/26 12:42:25;;;;;;;6.13;2.05;;;;;;;;;;5071113;28;20214;-65
2023/04/26 12:44:50;;;;;;;6.10;2.28;;;;;;;;;;5071648;28;20256;-65
2023/04/26 12:47:15;;;;;;;19.45;2.63;;;;;;;;;;5070279;28;20214;-64
2023/04/26 12:49:41;;;;;;;5.80;1.95;;;;;;;;;;5071440;28;20697;-65
2023/04/26 12:52:06;;;;;;;4.38;2.08;;;;;;;;;;5070934;28;20249;-64
2023/04/26 12:54:31;;;;;;;6.85;1.90;;;;;;;;;;5070659;28;20207;-65
2023/04/26 12:56:57;;;;;;;5.90;2.25;;;;;;;;;;5071207;28;20576;-66
2023/04/26 12:59:22;;;;;;;8.10;4.65;;;;;;;;;;5070873;28;20210;-65
2023/04/26 13:01:47;;;;;;;6.43;2.13;;;;;;;;;;5070479;28;20241;-65
2023/04/26 13:04:13;;;;;;;4.90;2.35;;;;;;;;;;5070752;28;20692;-65
2023/04/26 13:06:39;;;;;;;6.57;2.40;;;;;;;;;;5085796;28;20610;-65
2023/04/26 13:09:06;;;;;;;5.60;1.95;;;;;;;;;;5086772;28;20248;-65
2023/04/26 13:11:32;;;;;;;24.80;2.75;;;;;;;;;;5070920;28;20224;-65
2023/04/26 13:13:57;;;;;;;5.35;1.90;;;;;;;;;;5062460;28;20211;-65
2023/04/26 13:16:22;;;;;;;8.98;2.05;;;;;;;;;;5077319;28;20563;-65
2023/04/26 13:18:48;;;;;;;8.85;2.00;;;;;;;;;;5091344;28;20677;-65
2023/04/26 13:21:13;;;;;;;5.95;2.05;;;;;;;;;;5089960;28;20214;-65
2023/04/26 13:23:38;;;;;;;6.80;2.15;;;;;;;;;;5091163;28;20209;-65
2023/04/26 13:26:03;;;;;;;4.32;1.88;;;;;;;;;;5090362;28;20229;-65
2023/04/26 13:28:29;;;;;;;5.63;2.25;;;;;;;;;;5089460;28;20205;-65
2023/04/26 13:30:54;;;;;;;6.18;2.10;;;;;;;;;;5091128;28;20287;-65
2023/04/26 13:33:20;;;;;;;7.78;2.00;;;;;;;;;;5089066;28;20354;-65
2023/04/26 13:35:45;;;;;;;6.93;2.28;;;;;;;;;;5090166;28;20214;-65
2023/04/26 13:38:11;;;;;;;9.10;3.97;;;;;;;;;;5090219;28;20205;-64
2023/04/26 13:40:36;;;;;;;5.55;2.45;;;;;;;;;;5091009;28;20308;-63
2023/04/26 13:43:02;;;;;;;6.18;2.53;;;;;;;;;;5089484;28;20347;-63
2023/04/26 13:45:27;;;;;;;6.88;2.95;;;;;;;;;;5090610;28;20689;-65
2023/04/26 13:47:52;;;;;;;5.53;2.80;;;;;;;;;;5090858;28;20220;-66
2023/04/26 13:50:18;;;;;;;6.10;2.50;;;;;;;;;;5089451;28;20229;-67
2023/04/26 13:52:43;;;;;;;12.95;5.25;;;;;;;;;;5090561;28;20725;-66
2023/04/26 13:55:08;;;;;;;6.93;2.78;;;;;;;;;;5090069;28;20212;-64
2023/04/26 13:57:33;;;;;;;17.27;7.53;;;;;;;;;;5080498;28;20214;-65
2023/04/26 13:59:59;;;;;;;10.45;4.90;;;;;;;;;;5065347;28;20213;-66
2023/04/26 14:02:24;;;;;;;7.78;2.85;;;;;;;;;;5065178;28;20213;-67
2023/04/26 14:04:50;;;;;;;8.93;4.60;;;;;;;;;;5078124;28;20229;-65
2023/04/26 14:07:16;;;;;;;6.82;2.63;;;;;;;;;;5077327;28;20225;-65
2023/04/26 14:09:41;;;;;;;4.82;2.38;;;;;;;;;;5075670;28;20226;-65
2023/04/26 14:12:06;;;;;;;9.95;2.90;;;;;;;;;;5063485;28;20229;-64
2023/04/26 14:14:31;;;;;;;7.43;2.42;;;;;;;;;;5066199;28;20213;-66
2023/04/26 14:16:57;;;;;;;6.93;2.70;;;;;;;;;;5064981;28;20214;-65
2023/04/26 14:19:22;;;;;;;5.82;2.35;;;;;;;;;;5064600;28;20218;-64
2023/04/26 14:21:47;;;;;;;7.55;2.85;;;;;;;;;;5060496;28;20203;-64
2023/04/26 14:24:13;;;;;;;6.07;2.78;;;;;;;;;;5059492;28;20244;-65
2023/04/26 14:26:38;;;;;;;6.82;3.08;;;;;;;;;;5059392;28;20226;-65
2023/04/26 14:29:04;;;;;;;4.55;2.38;;;;;;;;;;5063877;28;20216;-64